Fort Ritchie, Maryland
Current Conditions -  °F | °C
As of 3:53 PM on Saturday 20 Dec 2014 (Local Time) from KRYT Reporting Station
Overcast Overcast  
Wind Chill: 33°   Ceiling: 11000
Heat Index: 33°   Visibility: 10mi
Dew Point: 20°   Wind: 0mph
Humidity: 59%   Direction: NA
Pressure: 30.21"   Gusts: NA
Location:  39.6957°N, 77.5032°W
Report Text: KRYT 202053Z AUTO 00000KT 10SM OVC110 01/M07 A3021 RMK AO2 SLP248 T00061067 55001 $
Loading
Personal Weather Stations






























Interactive Weather Map New forecast layout! Learn more

10-Day Weather Forecast

Advertisements
Track Severe Weather on mobile